createdAt,value
2022-12-14T00:02:28.275Z,6.17
2022-12-14T00:05:31.262Z,5.73
2022-12-14T00:08:41.302Z,6.37
2022-12-14T00:11:45.778Z,7.27
2022-12-14T00:14:48.467Z,6.63
2022-12-14T00:17:54.183Z,5.70
2022-12-14T00:20:56.831Z,6.37
2022-12-14T00:24:00.583Z,6.17
2022-12-14T00:27:04.833Z,6.57
2022-12-14T00:30:08.397Z,6.57
2022-12-14T00:33:11.296Z,7.03
2022-12-14T00:36:14.049Z,6.17
2022-12-14T00:39:16.979Z,7.40
2022-12-14T00:42:20.861Z,6.20
2022-12-14T00:45:23.647Z,6.80
2022-12-14T00:48:27.443Z,6.97
2022-12-14T00:51:30.438Z,7.60
2022-12-14T00:54:33.107Z,7.30
2022-12-14T00:57:37.320Z,6.17
2022-12-14T01:00:40.519Z,6.53
2022-12-14T01:03:43.364Z,6.00
2022-12-14T01:06:46.306Z,5.30
2022-12-14T01:09:49.058Z,5.63
2022-12-14T01:12:53.072Z,6.33
2022-12-14T01:15:56.072Z,5.90
2022-12-14T01:19:00.145Z,6.47
2022-12-14T01:22:03.211Z,6.60
2022-12-14T01:25:06.983Z,5.60
2022-12-14T01:28:11.005Z,8.00
2022-12-14T01:31:14.509Z,6.60
2022-12-14T01:34:17.400Z,6.50
2022-12-14T01:37:20.159Z,5.90
2022-12-14T01:40:23.252Z,6.27
2022-12-14T01:43:45.023Z,6.87
2022-12-14T01:46:53.683Z,5.80
2022-12-14T01:49:58.421Z,6.33
2022-12-14T01:53:03.497Z,6.77
2022-12-14T01:56:06.384Z,4.67
2022-12-14T01:59:13.990Z,6.13
2022-12-14T02:02:18.498Z,6.17
2022-12-14T02:05:22.854Z,5.93
2022-12-14T02:08:26.580Z,6.27
2022-12-14T02:11:32.415Z,5.90
2022-12-14T02:14:38.562Z,5.53
2022-12-14T02:17:42.498Z,5.00
2022-12-14T02:20:48.313Z,5.00
2022-12-14T02:24:07.469Z,5.57
2022-12-14T02:27:16.358Z,5.17
2022-12-14T02:30:20.831Z,5.80
2022-12-14T02:33:34.565Z,6.83
2022-12-14T02:36:45.421Z,4.90
2022-12-14T02:39:53.780Z,4.97
2022-12-14T02:43:02.380Z,4.40
2022-12-14T02:46:09.488Z,5.67
2022-12-14T02:49:14.939Z,4.43
2022-12-14T02:52:22.477Z,3.90
2022-12-14T02:55:28.652Z,4.10
2022-12-14T02:58:34.529Z,4.43
2022-12-14T03:01:40.326Z,4.50
2022-12-14T03:04:47.554Z,4.43
2022-12-14T03:07:52.063Z,3.40
2022-12-14T03:10:58.200Z,4.57
2022-12-14T03:14:03.847Z,4.60
2022-12-14T03:17:12.479Z,5.40
2022-12-14T03:20:20.993Z,4.77
2022-12-14T03:23:25.015Z,5.57
2022-12-14T03:26:31.728Z,5.17
2022-12-14T03:29:36.535Z,4.40
2022-12-14T03:32:42.751Z,4.83
2022-12-14T03:35:47.100Z,5.30
2022-12-14T03:38:51.307Z,4.67
2022-12-14T03:41:58.983Z,4.77
2022-12-14T03:45:04.835Z,4.80
2022-12-14T03:48:15.154Z,3.90
2022-12-14T03:51:22.667Z,4.27
2022-12-14T03:54:28.677Z,3.23
2022-12-14T03:57:43.894Z,4.70
2022-12-14T04:00:52.489Z,4.20
2022-12-14T04:03:58.333Z,4.23
2022-12-14T04:07:04.477Z,3.83
2022-12-14T04:10:29.234Z,5.53
2022-12-14T04:13:51.911Z,2.87
2022-12-14T04:17:12.653Z,2.40
2022-12-14T04:20:19.353Z,2.87
2022-12-14T04:23:38.000Z,3.37
2022-12-14T04:26:43.780Z,3.53
2022-12-14T04:30:00.764Z,3.17
2022-12-14T04:33:27.081Z,3.43
2022-12-14T04:36:33.979Z,2.10
2022-12-14T04:39:38.519Z,3.37
2022-12-14T04:42:45.040Z,4.13
2022-12-14T04:45:49.928Z,2.77
2022-12-14T04:48:56.864Z,2.87
2022-12-14T04:52:05.723Z,3.33
2022-12-14T04:55:12.042Z,3.17
2022-12-14T04:58:17.717Z,3.43
2022-12-14T05:01:31.590Z,4.00
2022-12-14T05:04:40.949Z,3.43
2022-12-14T05:07:48.698Z,3.27
2022-12-14T05:10:53.828Z,2.93
2022-12-14T05:13:58.689Z,2.23
2022-12-14T05:17:08.464Z,3.03
2022-12-14T05:20:16.478Z,2.97
2022-12-14T05:23:20.393Z,2.00
2022-12-14T05:26:23.157Z,3.77
2022-12-14T05:29:25.795Z,3.67
2022-12-14T05:32:29.667Z,3.10
2022-12-14T05:35:32.393Z,3.27
2022-12-14T05:38:36.402Z,2.73
2022-12-14T05:41:39.244Z,2.70
2022-12-14T05:44:41.811Z,1.80
2022-12-14T05:47:44.897Z,2.07
2022-12-14T05:50:47.873Z,2.30
2022-12-14T05:53:51.946Z,1.70
2022-12-14T05:56:54.671Z,1.43
2022-12-14T05:59:57.210Z,2.00
2022-12-14T06:02:59.736Z,2.50
2022-12-14T06:06:03.031Z,1.40
2022-12-14T06:09:08.496Z,1.60
2022-12-14T06:12:11.060Z,1.83
2022-12-14T06:15:14.187Z,2.70
2022-12-14T06:18:16.867Z,1.23
2022-12-14T06:21:20.533Z,2.33
2022-12-14T06:24:25.099Z,1.20
2022-12-14T06:27:29.440Z,1.43
2022-12-14T06:30:32.112Z,1.23
2022-12-14T06:33:35.451Z,1.23
2022-12-14T06:36:39.204Z,1.53
2022-12-14T06:39:43.704Z,1.87
2022-12-14T06:42:48.336Z,1.80
2022-12-14T06:45:51.543Z,1.73
2022-12-14T06:48:55.390Z,1.30
2022-12-14T06:51:58.442Z,1.57
2022-12-14T06:55:03.104Z,1.50
2022-12-14T06:58:05.939Z,2.20
2022-12-14T07:01:13.747Z,1.40
2022-12-14T07:04:17.653Z,2.07
2022-12-14T07:07:20.970Z,1.20
2022-12-14T07:10:25.074Z,1.33
2022-12-14T07:13:28.220Z,1.00
2022-12-14T07:16:31.104Z,0.90
2022-12-14T07:19:36.504Z,2.13
2022-12-14T07:22:40.544Z,1.53
2022-12-14T07:25:44.623Z,1.00
2022-12-14T07:28:52.415Z,1.50
2022-12-14T07:31:54.981Z,1.57
2022-12-14T07:34:57.942Z,1.33
2022-12-14T07:38:00.778Z,1.10
2022-12-14T07:41:05.977Z,1.67
2022-12-14T07:44:09.480Z,2.73
2022-12-14T07:47:16.374Z,1.17
2022-12-14T07:50:19.775Z,1.37
2022-12-14T07:53:22.486Z,1.60
2022-12-14T07:56:27.347Z,1.13
2022-12-14T07:59:29.982Z,1.27
2022-12-14T08:02:32.865Z,0.83
2022-12-14T08:05:39.007Z,1.40
2022-12-14T08:08:42.117Z,1.60
2022-12-14T08:11:47.310Z,1.37
2022-12-14T08:14:50.356Z,2.43
2022-12-14T08:17:53.133Z,1.23
2022-12-14T08:20:56.082Z,1.93
2022-12-14T08:23:59.139Z,2.33
2022-12-14T08:27:03.128Z,1.73
2022-12-14T08:30:06.559Z,1.47
2022-12-14T08:33:09.766Z,2.70
2022-12-14T08:36:13.319Z,1.70
2022-12-14T08:39:16.417Z,2.23
2022-12-14T08:42:20.427Z,1.83
2022-12-14T08:45:23.375Z,2.13
2022-12-14T08:48:26.066Z,2.07
2022-12-14T08:51:29.350Z,2.70
2022-12-14T08:54:32.511Z,3.43
2022-12-14T08:57:36.760Z,3.27
2022-12-14T09:00:39.632Z,4.27
2022-12-14T09:03:42.686Z,3.60
2022-12-14T09:06:45.409Z,4.20
2022-12-14T09:09:48.243Z,0.60
2022-12-14T09:12:52.684Z,2.33
2022-12-14T09:15:59.757Z,2.83
2022-12-14T09:19:02.566Z,4.03
2022-12-14T09:22:05.405Z,2.57
2022-12-14T09:25:09.203Z,3.23
2022-12-14T09:28:13.156Z,2.93
2022-12-14T09:31:17.049Z,3.43
2022-12-14T09:34:20.102Z,4.43
2022-12-14T09:37:23.260Z,3.73
2022-12-14T09:40:29.298Z,4.47
2022-12-14T09:43:39.019Z,1.93
2022-12-14T09:46:47.095Z,4.63
2022-12-14T09:49:51.418Z,5.67
2022-12-14T09:52:54.916Z,4.20
2022-12-14T09:55:59.003Z,6.23
2022-12-14T09:59:03.979Z,5.17
2022-12-14T10:02:36.449Z,4.80
2022-12-14T10:05:50.761Z,5.50
2022-12-14T10:08:57.749Z,5.47
2022-12-14T10:12:03.567Z,5.73
2022-12-14T10:15:15.918Z,5.67
2022-12-14T10:18:59.497Z,4.90
2022-12-14T10:22:00.099Z,7.13
2022-12-14T10:25:06.553Z,5.87
2022-12-14T10:28:16.047Z,6.73
2022-12-14T10:31:26.509Z,5.50
2022-12-14T10:34:30.232Z,6.03
2022-12-14T10:37:36.042Z,5.67
2022-12-14T10:40:43.537Z,5.20
2022-12-14T10:43:54.671Z,5.93
2022-12-14T10:47:00.511Z,7.17
2022-12-14T10:50:06.820Z,6.70
2022-12-14T10:53:12.336Z,6.87
2022-12-14T10:56:17.324Z,6.37
2022-12-14T10:59:38.956Z,5.70
2022-12-14T11:02:50.168Z,5.17
2022-12-14T11:05:57.179Z,5.00
2022-12-14T11:09:00.556Z,5.30
2022-12-14T11:12:05.054Z,5.90
2022-12-14T11:15:08.228Z,6.17
2022-12-14T11:18:24.141Z,5.53
2022-12-14T11:21:34.250Z,6.33
2022-12-14T11:24:45.556Z,5.53
2022-12-14T11:27:49.834Z,6.53
2022-12-14T11:30:58.418Z,5.90
2022-12-14T11:34:22.276Z,6.17
2022-12-14T11:37:29.046Z,6.97
2022-12-14T11:40:40.646Z,7.50
2022-12-14T11:43:43.962Z,6.40
2022-12-14T11:47:04.982Z,6.67
2022-12-14T11:50:24.746Z,5.40
2022-12-14T11:53:28.699Z,6.47
2022-12-14T11:56:31.915Z,6.90
2022-12-14T11:59:38.550Z,4.93
2022-12-14T12:02:53.035Z,6.70
2022-12-14T12:06:22.517Z,5.93
2022-12-14T12:09:33.003Z,6.63
2022-12-14T12:12:36.062Z,6.23
2022-12-14T12:15:40.607Z,5.00
2022-12-14T12:18:46.680Z,4.97
2022-12-14T12:21:52.963Z,6.23
2022-12-14T12:25:25.091Z,5.87
2022-12-14T12:28:26.926Z,5.83
2022-12-14T12:31:34.447Z,7.07
2022-12-14T12:34:39.222Z,6.13
2022-12-14T12:37:45.108Z,6.00
2022-12-14T12:40:54.593Z,5.77
2022-12-14T12:44:01.328Z,6.83
2022-12-14T12:47:24.752Z,6.33
2022-12-14T12:50:31.013Z,5.80
2022-12-14T12:53:44.034Z,6.37
2022-12-14T12:56:49.301Z,6.70
2022-12-14T12:59:56.818Z,6.10
2022-12-14T13:03:02.779Z,5.93
2022-12-14T13:06:09.034Z,5.77
2022-12-14T13:09:19.409Z,6.50
2022-12-14T13:12:24.783Z,7.07
2022-12-14T13:15:36.723Z,6.73
2022-12-14T13:22:10.892Z,6.53
2022-12-14T13:25:21.899Z,5.83
2022-12-14T13:28:36.859Z,6.90
2022-12-14T13:31:47.535Z,6.73
2022-12-14T13:34:57.767Z,5.80
2022-12-14T13:38:09.160Z,7.07
2022-12-14T13:41:18.652Z,6.57
2022-12-14T13:44:40.199Z,6.40
2022-12-14T13:47:48.944Z,6.00
2022-12-14T13:51:01.897Z,6.07
2022-12-14T13:54:09.908Z,6.20
2022-12-14T13:57:19.318Z,7.30
2022-12-14T14:00:59.851Z,6.97
2022-12-14T14:04:26.205Z,6.47
2022-12-14T14:07:53.640Z,7.07
2022-12-14T14:11:38.085Z,6.90
2022-12-14T14:14:48.805Z,8.40
2022-12-14T14:18:01.289Z,7.13
2022-12-14T14:21:58.759Z,7.03
2022-12-14T14:25:18.371Z,7.73
2022-12-14T14:28:42.261Z,8.33
2022-12-14T14:31:56.494Z,8.93
2022-12-14T14:35:10.657Z,7.90
2022-12-14T14:38:35.694Z,7.73
2022-12-14T14:42:21.463Z,8.03
2022-12-14T14:45:59.279Z,8.40
2022-12-14T14:49:37.217Z,7.97
2022-12-14T14:53:25.869Z,6.87
2022-12-14T14:56:49.973Z,7.90
2022-12-14T15:00:14.661Z,7.97
2022-12-14T15:03:24.105Z,7.37
2022-12-14T15:06:33.826Z,8.40
2022-12-14T15:09:40.568Z,6.97
2022-12-14T15:12:53.211Z,7.83
2022-12-14T15:15:56.484Z,8.00
2022-12-14T15:19:22.803Z,8.07
2022-12-14T15:22:28.454Z,8.07
2022-12-14T15:25:31.812Z,8.60
2022-12-14T15:28:34.734Z,7.17
2022-12-14T15:31:43.280Z,7.77
2022-12-14T15:34:53.419Z,7.83
2022-12-14T15:38:15.901Z,8.80
2022-12-14T15:41:29.703Z,7.47
2022-12-14T15:44:35.154Z,8.23
2022-12-14T15:47:52.142Z,7.53
2022-12-14T15:50:59.345Z,7.30
2022-12-14T15:54:05.971Z,7.90
2022-12-14T15:57:38.705Z,7.00
2022-12-14T16:00:43.966Z,5.97
2022-12-14T16:03:51.704Z,7.40
2022-12-14T16:06:57.163Z,7.27
2022-12-14T16:10:03.468Z,8.57
2022-12-14T16:13:26.520Z,8.93
2022-12-14T16:16:35.513Z,7.63
2022-12-14T16:19:58.299Z,7.93
2022-12-14T16:23:05.832Z,7.93
2022-12-14T16:26:21.724Z,7.30
2022-12-14T16:29:26.428Z,8.80
2022-12-14T16:32:31.607Z,8.93
2022-12-14T16:35:35.963Z,9.43
2022-12-14T16:38:42.010Z,9.30
2022-12-14T16:41:55.211Z,9.40
2022-12-14T16:44:58.024Z,7.57
2022-12-14T16:48:06.999Z,8.77
2022-12-14T16:51:18.702Z,9.13
2022-12-14T16:54:29.082Z,9.60
2022-12-14T16:57:33.025Z,9.73
2022-12-14T17:00:37.668Z,9.47
2022-12-14T17:03:40.317Z,10.50
2022-12-14T17:06:47.756Z,10.00
2022-12-14T17:09:50.385Z,9.97
2022-12-14T17:12:56.813Z,10.17
2022-12-14T17:16:01.122Z,10.50
2022-12-14T17:19:04.585Z,11.37
2022-12-14T17:22:08.801Z,12.77
2022-12-14T17:25:13.303Z,12.30
2022-12-14T17:28:23.064Z,10.90
2022-12-14T17:31:27.319Z,12.97
2022-12-14T17:34:30.281Z,14.80
2022-12-14T17:37:36.497Z,14.10
2022-12-14T17:40:39.911Z,14.60
2022-12-14T17:43:49.975Z,13.03
2022-12-14T17:46:56.311Z,10.97
2022-12-14T17:49:58.969Z,11.17
2022-12-14T17:53:01.595Z,11.60
2022-12-14T17:56:04.245Z,12.73
2022-12-14T17:59:08.283Z,12.47
2022-12-14T18:02:25.144Z,11.10
2022-12-14T18:05:27.975Z,11.87
2022-12-14T18:08:37.898Z,12.20
2022-12-14T18:12:14.015Z,11.30
2022-12-14T18:15:11.632Z,11.60
2022-12-14T18:18:27.595Z,9.43
2022-12-14T18:21:30.464Z,11.43
2022-12-14T18:24:33.241Z,9.93
2022-12-14T18:27:36.210Z,8.17
2022-12-14T18:30:47.509Z,9.67
2022-12-14T18:33:51.993Z,8.30
2022-12-14T18:36:54.740Z,6.83
2022-12-14T18:39:57.324Z,7.47
2022-12-14T18:43:00.117Z,9.20
2022-12-14T18:46:04.189Z,9.73
2022-12-14T18:49:07.752Z,8.27
2022-12-14T18:52:10.662Z,9.17
2022-12-14T18:55:16.052Z,9.17
2022-12-14T18:58:19.545Z,9.50
2022-12-14T19:01:26.920Z,11.30
2022-12-14T19:04:29.718Z,9.30
2022-12-14T19:07:46.624Z,8.50
2022-12-14T19:10:51.200Z,8.50
2022-12-14T19:13:56.394Z,7.60
2022-12-14T19:21:04.995Z,5.20
2022-12-14T19:24:22.768Z,6.30
2022-12-14T19:28:08.313Z,6.73
2022-12-14T19:30:51.309Z,5.63
2022-12-14T19:33:55.705Z,7.37
2022-12-14T19:36:58.403Z,7.23
2022-12-14T19:40:02.390Z,5.77
2022-12-14T19:43:05.045Z,7.60
2022-12-14T19:46:08.388Z,6.03
2022-12-14T19:49:14.538Z,7.17
2022-12-14T19:52:17.350Z,5.37
2022-12-14T19:55:20.102Z,6.30
2022-12-14T19:58:25.004Z,6.80
2022-12-14T20:01:32.303Z,6.37
2022-12-14T20:04:37.128Z,6.13
2022-12-14T20:07:43.913Z,6.90
2022-12-14T20:10:47.124Z,6.23
2022-12-14T20:13:56.603Z,6.87
2022-12-14T20:17:00.653Z,5.13
2022-12-14T20:20:04.768Z,6.40
2022-12-14T20:23:07.458Z,6.03
2022-12-14T20:26:12.023Z,5.10
2022-12-14T20:29:14.698Z,7.23
2022-12-14T20:32:36.496Z,6.37
2022-12-14T20:35:59.469Z,6.00
2022-12-14T20:39:02.745Z,5.73
2022-12-14T20:42:05.457Z,5.50
2022-12-14T20:45:18.866Z,5.83
2022-12-14T20:48:21.579Z,5.13
2022-12-14T20:53:05.586Z,5.00
2022-12-14T21:01:07.775Z,3.90
2022-12-14T21:04:10.356Z,4.33
2022-12-14T21:07:13.241Z,4.60
2022-12-14T21:10:18.982Z,5.17
2022-12-14T21:13:24.123Z,6.17
2022-12-14T21:17:05.409Z,4.73
2022-12-14T21:20:11.250Z,5.73
2022-12-14T21:23:13.717Z,5.80
2022-12-14T21:26:20.025Z,5.10
2022-12-14T21:29:43.946Z,5.30
2022-12-14T21:44:30.301Z,1.40
2022-12-14T22:09:12.153Z,2.73
2022-12-14T23:44:52.496Z,9.33
2022-12-14T23:57:55.742Z,3.20
